Terminal Aerodrome Forecast
Issued by NWS Upton, NY

Home | Current Version | Previous Version | Text Only | Print | Product List | Glossary On
Versions: 1 2 3 4 5 6 7 8 9 10 11 12 13 14 15 16 17 18 19 20 21 22 23 24 25 26 27 28 29 30 31 32
000
FTUS41 KOKX 261602 AAA
TAFJFK
TAF AMD
KJFK 261602Z 2616/2718 07010KT P6SM OVC015
     FM261800 08011KT P6SM OVC025
     FM262000 07010KT P6SM SCT025 OVC035
     FM270000 07008KT 6SM BR OVC015
     FM270200 07008KT 4SM -DZ BR OVC009
     FM270400 08008KT 2SM -DZ BR OVC006
     FM270800 VRB06KT 1SM -DZ BR OVC004
     FM271400 18009KT 4SM BR OVC006
     FM271600 18009KT P6SM OVC015=

USA.gov is the U.S. government's official web portal to all federal, state and local government web resources and services.